Time;durP1;ratioP1;P1;durP2;ratioP2;P2;SDS_P1;SDS_P2;PMS_P1;PMS_P2;Temp;Humidity;BMP_temperature;BMP_pressure;BME280_temperature;BME280_humidity;BME280_pressure;Samples;Min_cycle;Max_cycle;Signal;HPM_P1;HPM_P2
2023/02/09 00:02:23;;;;;;;19.25;10.55;;;;;;;0.13;95.34;103256.44;5084371;28;20440;-70
2023/02/09 00:04:48;;;;;;;16.52;9.55;;;;;;;0.04;95.46;103254.28;5068619;28;20021;-70
2023/02/09 00:07:14;;;;;;;17.60;9.30;;;;;;;-0.03;95.80;103252.19;5068221;28;20035;-69
2023/02/09 00:09:39;;;;;;;14.18;9.50;;;;;;;-0.07;95.69;103239.88;5067232;28;20463;-67
2023/02/09 00:14:48;;;;;;;14.00;9.18;;;;;;;-0.04;96.41;103246.13;5068166;28;20452;-69
2023/02/09 00:17:14;;;;;;;16.02;9.75;;;;;;;-0.03;96.56;103234.91;5060641;28;20029;-70
2023/02/09 00:19:39;;;;;;;14.88;9.52;;;;;;;-0.05;97.00;103239.16;5067212;28;20083;-70
2023/02/09 00:22:04;;;;;;;16.90;9.88;;;;;;;-0.03;97.38;103239.25;5067827;28;20512;-65
2023/02/09 00:24:30;;;;;;;19.75;10.02;;;;;;;-0.04;97.60;103240.94;5068099;28;20030;-64
2023/02/09 00:26:55;;;;;;;18.25;9.10;;;;;;;0.01;97.46;103233.38;5068625;28;20082;-70
2023/02/09 00:29:22;;;;;;;16.48;9.27;;;;;;;0.10;97.07;103232.94;5065795;28;20775;-70
2023/02/09 00:31:48;;;;;;;13.95;8.77;;;;;;;0.15;96.79;103240.94;5049939;28;20031;-67
2023/02/09 00:34:14;;;;;;;13.45;8.57;;;;;;;0.17;96.65;103232.41;5045899;28;20059;-71
2023/02/09 00:36:39;;;;;;;15.77;9.10;;;;;;;0.22;96.57;103230.94;5047784;28;20025;-70
2023/02/09 00:39:04;;;;;;;16.95;9.30;;;;;;;0.28;96.53;103226.84;5048620;28;20029;-67
2023/02/09 00:44:14;;;;;;;22.35;9.85;;;;;;;0.32;95.70;103223.59;5048565;28;20043;-71
2023/02/09 00:46:39;;;;;;;16.00;9.32;;;;;;;0.33;95.47;103221.06;5048302;28;20033;-67
2023/02/09 00:49:05;;;;;;;15.07;8.48;;;;;;;0.36;95.47;103223.81;5047712;28;20478;-71
2023/02/09 00:51:30;;;;;;;13.77;9.13;;;;;;;0.43;94.83;103227.59;5062075;28;20027;-70
2023/02/09 00:53:55;;;;;;;17.45;9.23;;;;;;;0.46;94.50;103222.56;5067919;28;20479;-68
2023/02/09 00:56:21;;;;;;;21.60;8.50;;;;;;;0.43;94.86;103222.41;5067481;28;20127;-69
2023/02/09 00:58:46;;;;;;;16.08;8.98;;;;;;;0.46;94.46;103225.16;5067519;28;20373;-72
2023/02/09 01:01:12;;;;;;;15.68;9.45;;;;;;;0.45;94.60;103220.75;5051494;28;20028;-70
2023/02/09 01:03:38;;;;;;;17.80;9.57;;;;;;;0.45;94.35;103225.94;5046711;28;20033;-67
2023/02/09 01:06:04;;;;;;;16.77;8.98;;;;;;;0.48;94.12;103217.44;5047445;28;20391;-65
2023/02/09 01:08:29;;;;;;;14.95;8.65;;;;;;;0.50;94.22;103219.28;5047442;28;20033;-66
2023/02/09 01:10:54;;;;;;;14.65;9.00;;;;;;;0.49;93.87;103233.03;5047609;28;20091;-69
2023/02/09 01:13:20;;;;;;;18.92;8.30;;;;;;;0.47;94.29;103229.50;5047615;28;20067;-72
2023/02/09 01:15:45;;;;;;;17.17;8.77;;;;;;;0.49;94.39;103234.75;5046816;28;20039;-67
2023/02/09 01:18:11;;;;;;;14.50;8.55;;;;;;;0.47;94.46;103224.31;5047342;28;20888;-67
2023/02/09 01:20:36;;;;;;;16.13;9.13;;;;;;;0.48;94.21;103231.28;5070409;28;20031;-68
2023/02/09 01:23:01;;;;;;;20.90;9.10;;;;;;;0.47;94.17;103231.19;5067333;28;20138;-69
2023/02/09 01:25:27;;;;;;;14.88;8.40;;;;;;;0.47;94.00;103229.50;5066350;28;20070;-67
2023/02/09 01:27:52;;;;;;;15.77;9.27;;;;;;;0.41;94.37;103229.22;5067039;28;20106;-64
2023/02/09 01:30:18;;;;;;;15.38;8.93;;;;;;;0.37;94.47;103224.69;5065172;28;20025;-68
2023/02/09 01:32:43;;;;;;;16.63;9.00;;;;;;;0.42;94.07;103215.41;5045892;28;20049;-68
2023/02/09 01:35:09;;;;;;;20.85;8.60;;;;;;;0.47;93.77;103200.06;5046890;28;20027;-68
2023/02/09 01:37:34;;;;;;;14.73;8.52;;;;;;;0.46;93.70;103204.38;5045599;28;20025;-69
2023/02/09 01:40:00;;;;;;;14.38;8.65;;;;;;;0.52;92.73;103200.28;5047126;28;20055;-70
2023/02/09 01:42:26;;;;;;;15.70;8.40;;;;;;;0.47;92.88;103202.66;5046775;28;20025;-70
2023/02/09 01:45:04;;;;;;;18.77;9.48;;;;;;;0.45;92.80;103193.94;5047529;28;20021;-64
2023/02/09 01:47:30;;;;;;;14.20;8.90;;;;;;;0.47;92.58;103194.88;5046770;28;20033;-70
2023/02/09 01:49:55;;;;;;;21.60;9.27;;;;;;;0.47;92.54;103195.78;5065568;28;20029;-69
2023/02/09 01:52:24;;;;;;;16.73;9.38;;;;;;;0.40;92.97;103180.75;5062033;28;20078;-69
2023/02/09 01:54:54;;;;;;;16.45;9.40;;;;;;;0.40;93.22;103178.16;5050948;28;20021;-70
2023/02/09 01:57:26;;;;;;;16.10;9.00;;;;;;;0.37;93.09;103185.78;5049109;28;20036;-69
2023/02/09 01:59:56;;;;;;;14.25;8.70;;;;;;;0.34;93.34;103186.53;5049462;28;20025;-61
2023/02/09 02:02:22;;;;;;;14.52;8.90;;;;;;;0.38;93.13;103187.56;5067924;28;20029;-66
2023/02/09 02:04:47;;;;;;;19.70;8.75;;;;;;;0.38;93.42;103190.16;5068635;28;20552;-61
2023/02/09 02:07:19;;;;;;;14.25;8.75;;;;;;;0.35;92.84;103196.09;5070159;28;20036;-69
2023/02/09 02:09:45;;;;;;;14.30;8.88;;;;;;;0.35;92.96;103192.59;5070836;28;20050;-70
2023/02/09 02:12:10;;;;;;;18.33;8.82;;;;;;;0.29;93.00;103192.31;5070795;28;20107;-69
2023/02/09 02:14:38;;;;;;;15.35;8.30;;;;;;;0.32;92.36;103188.16;5070815;28;20028;-67
2023/02/09 02:17:18;;;;;;;15.18;9.10;;;;;;;0.29;92.88;103184.53;5070886;28;20037;-69
2023/02/09 02:20:09;;;;;;;14.85;9.02;;;;;;;0.31;92.67;103180.31;5068520;28;20110;-68
2023/02/09 02:23:19;;;;;;;17.75;9.25;;;;;;;0.34;92.52;103175.28;5069056;28;20090;-69
2023/02/09 02:26:12;;;;;;;20.55;8.90;;;;;;;0.34;92.23;103180.47;5118048;23;20599;-68
2023/02/09 02:28:53;;;;;;;13.90;8.50;;;;;;;0.38;91.70;103169.41;5069976;28;20112;-56
2023/02/09 02:31:47;;;;;;;15.80;7.95;;;;;;;0.40;91.74;103164.28;5071131;28;20036;-70
2023/02/09 02:34:29;;;;;;;16.55;8.70;;;;;;;0.40;91.50;103151.31;5068386;28;20467;-63
2023/02/09 02:37:05;;;;;;;13.98;8.55;;;;;;;0.43;91.19;103143.69;5052311;28;20543;-68
2023/02/09 02:39:38;;;;;;;18.83;9.02;;;;;;;0.41;91.40;103140.13;5070062;28;20081;-74
2023/02/09 02:45:25;;;;;;;14.50;9.10;;;;;;;0.38;91.43;103143.47;5070122;28;20548;-70
2023/02/09 02:47:58;;;;;;;15.25;8.98;;;;;;;0.37;91.47;103139.09;5069020;28;20427;-64
2023/02/09 02:50:26;;;;;;;16.65;9.40;;;;;;;0.36;91.76;103142.53;5051795;28;20032;-71
2023/02/09 02:52:55;;;;;;;13.60;8.77;;;;;;;0.30;91.88;103147.44;5069941;28;20021;-59
2023/02/09 02:55:21;;;;;;;14.45;8.43;;;;;;;0.26;92.20;103138.59;5052304;28;20401;-60
2023/02/09 02:57:50;;;;;;;13.68;8.70;;;;;;;0.23;92.67;103141.94;5068613;28;20028;-70
2023/02/09 03:00:18;;;;;;;17.52;8.65;;;;;;;0.19;93.04;103149.50;5052192;28;20353;-70
2023/02/09 03:02:49;;;;;;;13.33;8.70;;;;;;;0.19;93.74;103147.81;5050880;28;20107;-64
2023/02/09 03:05:16;;;;;;;17.92;8.85;;;;;;;0.19;93.48;103140.03;5051877;28;20032;-71
2023/02/09 03:07:41;;;;;;;16.17;9.35;;;;;;;0.15;93.55;103135.50;5051485;28;20037;-70
2023/02/09 03:10:25;;;;;;;15.70;9.02;;;;;;;0.17;93.43;103125.19;5068492;28;20112;-69
2023/02/09 03:13:29;;;;;;;14.32;8.95;;;;;;;0.14;93.92;103125.94;5069715;28;20463;-68
2023/02/09 03:15:57;;;;;;;14.38;8.23;;;;;;;0.18;93.66;103125.28;5069035;28;20090;-71
2023/02/09 03:18:26;;;;;;;14.65;9.02;;;;;;;0.17;93.39;103113.13;5068539;28;20029;-61
2023/02/09 03:20:56;;;;;;;17.77;9.07;;;;;;;0.25;92.98;103114.34;5069955;28;20107;-58
2023/02/09 03:23:29;;;;;;;16.88;8.75;;;;;;;0.32;92.85;103112.94;5043686;28;20029;-58
2023/02/09 03:25:56;;;;;;;14.23;8.55;;;;;;;0.36;92.60;103117.47;5051181;28;20083;-75
2023/02/09 03:28:23;;;;;;;13.15;8.27;;;;;;;0.49;91.55;103111.09;5051534;28;20354;-59
2023/02/09 03:30:50;;;;;;;19.67;9.43;;;;;;;0.57;90.93;103113.19;5032783;28;20040;-68
2023/02/09 03:33:24;;;;;;;17.45;8.25;;;;;;;0.64;90.04;103107.44;5067727;28;20100;-65
2023/02/09 03:35:52;;;;;;;13.82;8.60;;;;;;;0.66;89.90;103100.59;5051294;28;20126;-73
2023/02/09 03:38:17;;;;;;;19.53;9.00;;;;;;;0.61;90.39;103099.53;5051426;28;20059;-76
2023/02/09 03:40:43;;;;;;;16.30;8.52;;;;;;;0.62;90.66;103094.41;5068577;28;20056;-66
2023/02/09 03:43:10;;;;;;;13.23;8.10;;;;;;;0.56;90.65;103093.22;5068943;28;20060;-73
2023/02/09 03:45:36;;;;;;;19.15;9.00;;;;;;;0.60;90.44;103087.38;5068408;28;20044;-75
2023/02/09 03:48:01;;;;;;;19.05;9.07;;;;;;;0.56;90.56;103088.03;5068226;28;20024;-69
2023/02/09 03:50:28;;;;;;;14.88;8.25;;;;;;;0.53;90.57;103086.19;5068262;28;20024;-67
2023/02/09 03:52:54;;;;;;;18.90;9.02;;;;;;;0.53;90.47;103087.91;5068396;28;20237;-65
2023/02/09 03:55:19;;;;;;;14.93;9.10;;;;;;;0.56;90.46;103082.84;5050819;28;20088;-73
2023/02/09 03:57:44;;;;;;;18.08;8.88;;;;;;;0.49;90.71;103082.56;5057437;28;20021;-74
2023/02/09 04:00:11;;;;;;;16.75;8.60;;;;;;;0.62;90.04;103086.63;5068059;28;20031;-72
2023/02/09 04:02:36;;;;;;;13.52;8.30;;;;;;;0.68;89.34;103088.59;5066801;28;20104;-66
2023/02/09 04:05:02;;;;;;;15.98;8.45;;;;;;;0.72;88.86;103084.44;5068513;28;20116;-73
2023/02/09 04:07:27;;;;;;;14.13;8.30;;;;;;;0.77;88.08;103089.78;5067505;28;20418;-72
2023/02/09 04:09:52;;;;;;;14.98;7.93;;;;;;;0.82;87.89;103090.91;5068473;28;20037;-64
2023/02/09 04:12:18;;;;;;;15.32;8.60;;;;;;;0.87;86.93;103091.97;5066589;28;20016;-65
2023/02/09 04:14:43;;;;;;;15.85;7.93;;;;;;;0.81;86.51;103087.41;5068299;28;20429;-73
2023/02/09 04:17:08;;;;;;;16.45;8.30;;;;;;;0.85;86.21;103088.44;5067523;28;20059;-72
2023/02/09 04:19:34;;;;;;;16.15;7.88;;;;;;;0.84;85.81;103089.25;5067795;28;20488;-70
2023/02/09 04:21:59;;;;;;;12.25;7.20;;;;;;;0.87;85.51;103068.59;5068628;28;20147;-65
2023/02/09 04:24:25;;;;;;;15.30;7.30;;;;;;;0.87;85.62;103066.00;5068079;28;20426;-73
2023/02/09 04:26:50;;;;;;;10.05;7.10;;;;;;;0.92;85.47;103071.41;5067856;28;20094;-73
2023/02/09 04:29:16;;;;;;;14.93;7.45;;;;;;;0.87;85.58;103071.19;5065833;28;20070;-59
2023/02/09 04:31:41;;;;;;;12.32;7.97;;;;;;;0.89;84.97;103074.75;5056625;28;20060;-63
2023/02/09 04:34:06;;;;;;;12.60;6.85;;;;;;;0.89;85.01;103077.34;5066140;28;20023;-73
2023/02/09 04:36:32;;;;;;;10.95;7.63;;;;;;;0.91;84.66;103080.00;5066599;28;20421;-71
2023/02/09 04:38:57;;;;;;;18.25;7.85;;;;;;;0.91;84.79;103075.72;5067016;28;20497;-66
2023/02/09 04:41:22;;;;;;;12.15;7.47;;;;;;;0.90;84.42;103084.31;5067832;28;20047;-66
2023/02/09 04:43:48;;;;;;;12.32;7.97;;;;;;;0.89;84.75;103079.94;5067157;28;20736;-73
2023/02/09 04:46:15;;;;;;;24.30;7.88;;;;;;;0.90;84.57;103092.09;5067358;28;20029;-61
2023/02/09 04:48:41;;;;;;;11.60;7.00;;;;;;;0.90;84.76;103089.50;5065876;28;20077;-67
2023/02/09 04:51:06;;;;;;;15.45;7.70;;;;;;;0.83;85.23;103095.25;5050964;28;20025;-66
2023/02/09 04:53:32;;;;;;;14.65;7.00;;;;;;;0.88;84.75;103107.59;5046843;28;20029;-72
2023/02/09 04:55:57;;;;;;;17.45;7.22;;;;;;;0.90;84.83;103102.47;5046864;28;20029;-73
2023/02/09 05:01:07;;;;;;;14.48;7.75;;;;;;;0.96;84.30;103102.75;5047545;28;20090;-73
2023/02/09 05:03:32;;;;;;;12.25;7.60;;;;;;;0.94;84.20;103101.81;5028727;28;20379;-73
2023/02/09 05:06:00;;;;;;;11.52;7.00;;;;;;;0.91;84.76;103119.84;5047593;28;20029;-67
2023/02/09 05:08:26;;;;;;;11.93;7.45;;;;;;;0.87;85.60;103110.13;5048954;28;20036;-66
2023/02/09 05:10:51;;;;;;;11.77;6.80;;;;;;;0.85;86.16;103106.59;5047272;28;20027;-60
2023/02/09 05:13:18;;;;;;;14.05;7.43;;;;;;;0.86;85.94;103108.38;5065988;28;20657;-62
2023/02/09 05:15:43;;;;;;;16.60;6.93;;;;;;;0.83;85.82;103116.91;5066392;28;20035;-72
2023/02/09 05:18:09;;;;;;;12.65;7.03;;;;;;;0.86;85.27;103122.25;5059422;28;20020;-67
2023/02/09 05:20:35;;;;;;;13.90;7.60;;;;;;;0.85;85.56;103119.59;5045487;28;20067;-69
2023/02/09 05:23:01;;;;;;;15.60;7.80;;;;;;;0.85;86.16;103117.00;5056097;28;20397;-73
2023/02/09 05:25:26;;;;;;;12.68;7.05;;;;;;;0.82;85.84;103122.94;5065933;28;20041;-66
2023/02/09 05:27:52;;;;;;;13.30;6.65;;;;;;;0.83;86.18;103129.00;5066246;28;20125;-62
2023/02/09 05:30:17;;;;;;;14.02;6.90;;;;;;;0.83;86.59;103134.19;5067096;28;20471;-73
2023/02/09 05:32:43;;;;;;;16.75;7.25;;;;;;;0.82;86.49;103133.31;5065746;28;20032;-72
2023/02/09 05:35:08;;;;;;;18.05;7.25;;;;;;;0.84;86.31;103136.00;5066085;28;20032;-72
2023/02/09 05:37:33;;;;;;;15.98;7.25;;;;;;;0.82;86.77;103119.44;5066549;28;20025;-66
2023/02/09 05:39:59;;;;;;;14.27;6.90;;;;;;;0.78;86.80;103125.34;5066728;28;20475;-72
2023/02/09 05:42:26;;;;;;;11.80;6.93;;;;;;;0.80;86.89;103118.47;5066302;28;20389;-73
2023/02/09 05:44:51;;;;;;;13.20;6.93;;;;;;;0.79;86.98;103115.00;5066850;28;20090;-58
2023/02/09 05:47:19;;;;;;;13.50;7.43;;;;;;;0.78;87.01;103112.34;5066332;28;20462;-63
2023/02/09 05:49:45;;;;;;;13.85;7.75;;;;;;;0.69;87.93;103116.31;5066032;28;20033;-64
2023/02/09 05:52:10;;;;;;;15.45;7.35;;;;;;;0.62;88.39;103135.00;5066009;28;20039;-72
2023/02/09 05:54:36;;;;;;;14.63;6.90;;;;;;;0.49;89.41;103133.59;5066110;28;20414;-74
2023/02/09 05:57:01;;;;;;;14.90;7.72;;;;;;;0.44;90.34;103143.75;5066917;28;20099;-62
2023/02/09 05:59:27;;;;;;;14.95;7.90;;;;;;;0.41;91.45;103132.34;5066107;28;20039;-65
2023/02/09 06:01:52;;;;;;;14.85;7.60;;;;;;;0.45;91.17;103142.06;5051740;28;20487;-72
2023/02/09 06:04:18;;;;;;;13.02;7.22;;;;;;;0.45;91.18;103136.88;5047025;28;20387;-69
2023/02/09 06:06:43;;;;;;;12.20;7.32;;;;;;;0.41;91.44;103145.31;5045118;28;20082;-68
2023/02/09 06:09:08;;;;;;;18.83;7.75;;;;;;;0.42;91.27;103152.28;5046374;28;20044;-67
2023/02/09 06:11:34;;;;;;;16.98;7.70;;;;;;;0.40;91.68;103148.72;5046430;28;20522;-74
2023/02/09 06:14:00;;;;;;;14.93;7.60;;;;;;;0.36;91.88;103152.91;5046190;28;20021;-65
2023/02/09 06:16:25;;;;;;;15.05;8.13;;;;;;;0.32;92.16;103162.22;5046632;28;20074;-71
2023/02/09 06:18:50;;;;;;;12.25;7.78;;;;;;;0.27;93.02;103170.63;5046433;28;20470;-65
2023/02/09 06:21:16;;;;;;;13.25;7.07;;;;;;;0.28;93.20;103159.41;5046304;28;20060;-73
2023/02/09 06:23:41;;;;;;;15.25;7.28;;;;;;;0.31;93.16;103164.75;5046385;28;20029;-62
2023/02/09 06:26:10;;;;;;;11.57;6.78;;;;;;;0.35;92.96;103170.16;5046321;28;20037;-66
2023/02/09 06:28:36;;;;;;;14.35;7.38;;;;;;;0.33;92.98;103169.19;5065054;28;20039;-67
2023/02/09 06:31:02;;;;;;;15.32;7.15;;;;;;;0.36;92.88;103169.34;5065638;28;20020;-67
2023/02/09 06:33:27;;;;;;;12.90;7.55;;;;;;;0.37;92.76;103167.63;5064976;28;20028;-72
2023/02/09 06:35:53;;;;;;;16.17;7.30;;;;;;;0.35;92.59;103172.75;5068872;28;20021;-62
2023/02/09 06:38:18;;;;;;;11.77;7.22;;;;;;;0.37;92.97;103170.22;5052244;28;20073;-63
2023/02/09 06:40:45;;;;;;;12.50;7.45;;;;;;;0.33;92.99;103170.91;5069751;28;20031;-71
2023/02/09 06:43:10;;;;;;;15.02;7.50;;;;;;;0.34;93.32;103173.56;5070053;28;20025;-72
2023/02/09 06:45:39;;;;;;;12.13;7.30;;;;;;;0.36;93.40;103169.34;5069592;28;20027;-73
2023/02/09 06:48:05;;;;;;;12.38;7.15;;;;;;;0.36;93.59;103171.94;5069980;28;20028;-74
2023/02/09 06:50:31;;;;;;;13.95;7.47;;;;;;;0.41;93.45;103166.94;5052718;28;20359;-73
2023/02/09 06:52:57;;;;;;;13.40;7.63;;;;;;;0.48;93.25;103170.72;5055117;28;20111;-62
2023/02/09 06:55:22;;;;;;;15.35;7.07;;;;;;;0.51;92.81;103157.88;5062772;28;20395;-64
2023/02/09 06:57:48;;;;;;;13.88;7.00;;;;;;;0.55;92.63;103158.91;5051916;28;20021;-72
2023/02/09 07:00:13;;;;;;;18.42;7.18;;;;;;;0.58;92.62;103149.56;5070933;28;20467;-74
2023/02/09 07:02:41;;;;;;;17.65;7.45;;;;;;;0.63;92.45;103139.38;5068772;28;20028;-67
2023/02/09 07:05:07;;;;;;;15.52;7.88;;;;;;;0.62;92.75;103130.72;5070139;28;20063;-65
2023/02/09 07:07:32;;;;;;;15.98;8.60;;;;;;;0.62;93.10;103140.22;5070548;28;20102;-72
2023/02/09 07:09:57;;;;;;;13.10;8.05;;;;;;;0.64;92.92;103138.59;5061348;28;20122;-73
2023/02/09 07:12:23;;;;;;;14.95;7.47;;;;;;;0.66;93.17;103147.31;5057926;28;20025;-67
2023/02/09 07:14:48;;;;;;;14.93;7.93;;;;;;;0.69;93.27;103163.00;5057873;28;20033;-68
2023/02/09 07:17:13;;;;;;;25.90;8.70;;;;;;;0.72;93.39;103164.88;5060254;28;20024;-73
2023/02/09 07:19:39;;;;;;;15.35;7.85;;;;;;;0.78;93.34;103166.84;5067062;28;20020;-73
2023/02/09 07:22:04;;;;;;;16.35;7.47;;;;;;;0.73;93.83;103159.72;5068955;28;20410;-66
2023/02/09 07:24:29;;;;;;;13.40;7.80;;;;;;;0.78;93.84;103162.53;5068459;28;20414;-71
2023/02/09 07:26:55;;;;;;;17.02;7.78;;;;;;;0.82;93.65;103164.47;5067364;28;20368;-73
2023/02/09 07:29:20;;;;;;;20.90;7.95;;;;;;;0.82;93.33;103169.66;5067646;28;20020;-65
2023/02/09 07:31:45;;;;;;;12.88;8.57;;;;;;;0.83;93.27;103163.66;5066577;28;20020;-62
2023/02/09 07:34:11;;;;;;;17.27;8.85;;;;;;;0.77;93.87;103163.38;5067591;28;20115;-73
2023/02/09 07:36:36;;;;;;;18.73;8.48;;;;;;;0.80;93.79;103157.41;5066482;28;20339;-74
2023/02/09 07:39:01;;;;;;;18.92;10.10;;;;;;;0.90;93.27;103156.13;5067050;28;20048;-66
2023/02/09 07:41:27;;;;;;;17.85;7.80;;;;;;;0.96;93.54;103172.84;5066849;28;20012;-68
2023/02/09 07:43:54;;;;;;;13.50;7.75;;;;;;;0.90;93.68;103179.50;5067748;28;20278;-72
2023/02/09 07:46:21;;;;;;;17.05;7.85;;;;;;;0.94;94.01;103179.72;5067959;28;20487;-67
2023/02/09 07:48:47;;;;;;;12.50;7.43;;;;;;;1.00;93.79;103164.38;5066913;28;20187;-67
2023/02/09 07:51:23;;;;;;;15.70;8.00;;;;;;;1.02;93.69;103171.34;5067830;28;20016;-60
2023/02/09 07:53:49;;;;;;;16.98;8.18;;;;;;;1.12;93.32;103183.91;5068512;28;20151;-68
2023/02/09 07:56:14;;;;;;;14.60;8.27;;;;;;;1.12;93.33;103186.53;5067464;28;20593;-66
2023/02/09 07:58:40;;;;;;;16.15;8.15;;;;;;;1.17;93.50;103177.19;5067533;28;20020;-65
2023/02/09 08:01:07;;;;;;;19.30;8.07;;;;;;;1.16;93.50;103175.44;5057732;28;20017;-60
2023/02/09 08:03:36;;;;;;;24.40;8.60;;;;;;;1.22;93.46;103186.09;5056112;28;20108;-66
2023/02/09 08:06:11;;;;;;;20.48;8.55;;;;;;;1.31;93.09;103184.69;5055605;28;20043;-64
2023/02/09 08:08:36;;;;;;;13.93;8.60;;;;;;;1.38;92.72;103174.63;5038076;28;20378;-64
2023/02/09 08:11:03;;;;;;;18.30;8.65;;;;;;;1.42;92.37;103177.38;5059137;28;20023;-65
2023/02/09 08:13:33;;;;;;;13.07;6.93;;;;;;;1.45;92.05;103185.28;5038301;28;20499;-62
2023/02/09 08:16:03;;;;;;;20.15;8.55;;;;;;;1.57;91.69;103187.53;5049236;28;20128;-61
2023/02/09 08:18:39;;;;;;;12.63;7.70;;;;;;;1.64;91.82;103179.16;5045168;28;20016;-66
2023/02/09 08:21:07;;;;;;;17.52;8.05;;;;;;;1.60;91.76;103177.25;5028224;28;20039;-64
2023/02/09 08:23:34;;;;;;;13.10;7.68;;;;;;;1.67;91.61;103174.09;5045870;28;20048;-65
2023/02/09 08:26:04;;;;;;;16.80;8.50;;;;;;;1.62;91.84;103168.69;5057456;28;20040;-64
2023/02/09 08:28:29;;;;;;;18.33;8.80;;;;;;;1.71;91.51;103170.78;5065230;28;20097;-59
2023/02/09 08:30:54;;;;;;;14.57;7.93;;;;;;;1.75;91.37;103166.59;5064392;28;20115;-65
2023/02/09 08:33:20;;;;;;;20.33;8.65;;;;;;;1.85;90.73;103173.94;5064970;28;20025;-64
2023/02/09 08:35:45;;;;;;;12.73;7.78;;;;;;;1.97;90.19;103176.16;5064919;28;20401;-64
2023/02/09 08:38:11;;;;;;;18.73;8.55;;;;;;;1.92;90.84;103171.59;5065961;28;20025;-65
2023/02/09 08:40:40;;;;;;;13.07;8.10;;;;;;;2.04;90.45;103174.66;5065731;28;20393;-65
2023/02/09 08:43:05;;;;;;;17.50;8.82;;;;;;;2.17;89.67;103164.75;5066031;28;20028;-67
2023/02/09 08:45:31;;;;;;;15.50;8.43;;;;;;;2.19;89.63;103157.88;5064787;28;20055;-64
2023/02/09 08:47:56;;;;;;;20.63;8.90;;;;;;;2.22;89.62;103160.59;5064785;28;20116;-64
2023/02/09 08:50:21;;;;;;;18.27;8.93;;;;;;;2.27;88.93;103167.78;5059989;28;20017;-65
2023/02/09 08:52:47;;;;;;;20.40;9.27;;;;;;;2.31;89.27;103162.66;5064692;28;20074;-57
2023/02/09 08:55:12;;;;;;;14.80;8.48;;;;;;;2.39;88.72;103177.78;5065634;28;20024;-59
2023/02/09 08:57:38;;;;;;;18.00;8.50;;;;;;;2.50;87.95;103175.56;5064318;28;20100;-65
2023/02/09 09:00:04;;;;;;;23.67;8.18;;;;;;;2.53;89.04;103174.81;5064622;28;20514;-66
2023/02/09 09:02:29;;;;;;;14.73;8.50;;;;;;;2.71;88.07;103184.13;5062162;28;20025;-65
2023/02/09 09:04:55;;;;;;;17.67;9.32;;;;;;;2.69;87.85;103191.88;5065775;28;20448;-64
2023/02/09 09:07:20;;;;;;;15.60;9.02;;;;;;;2.86;87.68;103182.06;5065826;28;20024;-64
2023/02/09 09:09:45;;;;;;;14.98;8.20;;;;;;;2.89;87.59;103176.97;5066773;28;20028;-61
2023/02/09 09:12:11;;;;;;;15.63;9.32;;;;;;;3.02;87.20;103169.59;5066316;28;20494;-62
2023/02/09 09:14:36;;;;;;;18.45;9.00;;;;;;;3.03;88.20;103171.38;5066050;28;20035;-65
2023/02/09 09:17:02;;;;;;;14.80;8.82;;;;;;;3.19;86.77;103166.69;5064814;28;20077;-65
2023/02/09 09:19:28;;;;;;;18.55;9.30;;;;;;;3.32;86.38;103168.00;5048398;28;20036;-60
2023/02/09 09:21:53;;;;;;;16.30;9.45;;;;;;;3.35;85.78;103161.19;5065158;28;20427;-65
2023/02/09 09:24:19;;;;;;;19.60;9.00;;;;;;;3.34;85.67;103177.63;5066483;28;20016;-64
2023/02/09 09:26:45;;;;;;;18.80;9.20;;;;;;;3.44;86.32;103165.81;5065712;28;20059;-66
2023/02/09 09:29:10;;;;;;;17.85;9.15;;;;;;;3.49;85.33;103181.63;5065621;28;20418;-63
2023/02/09 09:31:36;;;;;;;14.70;8.55;;;;;;;3.68;85.01;103196.16;5046044;28;20453;-63
2023/02/09 09:34:03;;;;;;;13.90;8.60;;;;;;;3.75;84.94;103190.31;5065852;28;20017;-63
2023/02/09 09:36:28;;;;;;;22.58;9.38;;;;;;;3.86;84.63;103194.97;5064664;28;20343;-60
2023/02/09 09:38:53;;;;;;;13.32;8.73;;;;;;;3.96;83.71;103203.97;5054864;28;20121;-64
2023/02/09 09:41:30;;;;;;;19.13;9.25;;;;;;;3.94;84.44;103211.75;5063973;28;20730;-66
2023/02/09 09:43:56;;;;;;;18.13;9.38;;;;;;;4.15;84.53;103206.34;5038202;28;20033;-65
2023/02/09 09:46:29;;;;;;;18.75;9.48;;;;;;;4.32;84.09;103215.50;5060634;28;20325;-62
2023/02/09 09:48:56;;;;;;;20.52;9.52;;;;;;;4.38;82.59;103215.72;5061038;28;20029;-63
2023/02/09 09:51:23;;;;;;;14.57;8.57;;;;;;;4.47;82.05;103207.28;5044062;28;20243;-59
2023/02/09 09:53:50;;;;;;;17.60;9.50;;;;;;;4.43;82.60;103209.78;5061141;28;20052;-60
2023/02/09 09:56:17;;;;;;;17.30;8.88;;;;;;;4.47;83.36;103209.88;5062817;28;20271;-61
2023/02/09 09:58:44;;;;;;;18.42;9.40;;;;;;;4.41;83.39;103206.25;5061068;28;20474;-59
2023/02/09 10:01:14;;;;;;;18.90;9.90;;;;;;;4.55;82.92;103209.25;5058595;28;20025;-61
2023/02/09 10:03:40;;;;;;;17.38;9.80;;;;;;;4.45;82.96;103215.06;5061595;28;20029;-64
2023/02/09 10:06:16;;;;;;;19.42;10.38;;;;;;;4.38;84.03;103208.78;5063829;28;20500;-65
2023/02/09 10:08:54;;;;;;;21.38;9.43;;;;;;;4.49;84.76;103208.22;5061997;28;20773;-66
2023/02/09 10:11:29;;;;;;;15.75;9.13;;;;;;;4.57;85.08;103208.44;5032150;28;20029;-66
2023/02/09 10:13:56;;;;;;;16.98;10.13;;;;;;;4.41;86.47;103211.47;5063804;28;20025;-64
2023/02/09 10:16:24;;;;;;;24.85;9.70;;;;;;;4.37;87.22;103219.16;5067127;28;20542;-63
2023/02/09 10:18:55;;;;;;;23.27;11.20;;;;;;;4.47;87.06;103228.16;5067527;28;20025;-63
2023/02/09 10:21:27;;;;;;;21.45;9.80;;;;;;;4.42;87.60;103233.22;5067399;28;20021;-65
2023/02/09 10:23:58;;;;;;;16.33;9.27;;;;;;;4.63;86.96;103232.09;5068080;28;20037;-63
2023/02/09 10:26:32;;;;;;;21.00;10.30;;;;;;;4.74;86.67;103235.03;5068114;28;20106;-64
2023/02/09 10:29:06;;;;;;;17.05;9.95;;;;;;;4.72;87.05;103235.00;5050475;28;20020;-62
2023/02/09 10:31:33;;;;;;;19.30;9.88;;;;;;;4.74;87.54;103228.09;5037959;28;20361;-63
2023/02/09 10:34:32;;;;;;;19.65;10.50;;;;;;;4.75;87.46;103229.88;5056700;28;20033;-60
2023/02/09 10:37:13;;;;;;;17.58;9.23;;;;;;;4.86;87.78;103229.28;5016792;28;20072;-65
2023/02/09 10:39:38;;;;;;;22.23;11.45;;;;;;;4.88;87.34;103238.94;5047307;28;20029;-65
2023/02/09 10:42:32;;;;;;;24.67;10.75;;;;;;;4.85;87.99;103240.59;5038542;28;20027;-59
2023/02/09 10:45:06;;;;;;;21.08;10.52;;;;;;;5.03;88.08;103229.78;5028699;28;20045;-66
2023/02/09 10:47:31;;;;;;;20.30;11.35;;;;;;;5.09;88.19;103216.00;5030302;28;20025;-71
2023/02/09 10:50:11;;;;;;;23.10;10.27;;;;;;;5.13;88.65;103233.53;5048817;28;20051;-61
2023/02/09 10:52:41;;;;;;;21.52;10.60;;;;;;;5.51;88.40;103244.13;5031262;28;20025;-64
2023/02/09 10:55:26;;;;;;;19.67;10.50;;;;;;;5.72;86.73;103244.66;5031163;28;20491;-64
2023/02/09 10:58:02;;;;;;;15.95;10.70;;;;;;;5.82;85.77;103251.88;5069827;28;20025;-59
2023/02/09 11:00:33;;;;;;;19.95;11.10;;;;;;;5.93;85.83;103255.63;5040631;28;20103;-65
2023/02/09 11:03:02;;;;;;;20.95;11.65;;;;;;;6.02;83.74;103254.97;5035525;28;20108;-65
2023/02/09 11:05:29;;;;;;;;;;;;;;;6.02;85.56;103246.25;5060695;28;20210;-67
2023/02/09 11:07:57;;;;;;;25.08;10.98;;;;;;;6.03;84.36;103259.38;5060688;28;19946;-66
2023/02/09 11:10:22;;;;;;;23.08;10.60;;;;;;;6.17;84.29;103259.72;5045769;28;20471;-61
2023/02/09 11:12:48;;;;;;;23.48;10.52;;;;;;;6.05;86.58;103252.47;5058006;28;20021;-65
2023/02/09 11:15:14;;;;;;;27.80;12.48;;;;;;;6.24;85.24;103247.69;5047484;28;20070;-58
2023/02/09 11:17:45;;;;;;;18.38;10.65;;;;;;;6.24;84.35;103258.16;5037395;28;20593;-62
2023/02/09 11:20:34;;;;;;;21.05;11.55;;;;;;;6.54;83.44;103261.44;5038299;28;20032;-64
2023/02/09 11:23:43;;;;;;;18.33;11.75;;;;;;;6.30;86.08;103245.19;5039456;28;20021;-65
2023/02/09 11:26:52;;;;;;;22.48;12.02;;;;;;;6.54;84.87;103249.19;4981869;28;20471;-65
2023/02/09 11:29:23;;;;;;;16.67;10.98;;;;;;;6.50;85.38;103236.03;4959254;28;20121;-61
2023/02/09 11:31:54;;;;;;;21.42;11.70;;;;;;;6.54;85.82;103230.84;5030860;28;20044;-65
2023/02/09 11:34:38;;;;;;;18.02;11.60;;;;;;;6.41;87.04;103237.56;5030088;28;20013;-63
2023/02/09 11:37:22;;;;;;;18.35;10.73;;;;;;;6.61;86.17;103241.47;5048056;28;20375;-68
2023/02/09 11:40:16;;;;;;;25.30;12.00;;;;;;;6.60;86.56;103239.72;5035692;28;20043;-61
2023/02/09 11:42:49;;;;;;;25.70;12.70;;;;;;;6.57;86.72;103243.16;5045248;28;20037;-66